地図

経路データ

SID SEASON NUMBER BASIN SUBBASIN NAME ISO_TIME NATURE LAT LON WMO_WIND WMO_PRES WMO_AGENCY TRACK_TYPE DIST2LAND LANDFALL IFLAG USA_AGENCY USA_ATCF_ID USA_LAT USA_LON USA_RECORD USA_STATUS USA_WIND USA_PRES USA_SSHS USA_R34_NE USA_R34_SE USA_R34_SW USA_R34_NW USA_R50_NE USA_R50_SE USA_R50_SW USA_R50_NW USA_R64_NE USA_R64_SE USA_R64_SW USA_R64_NW USA_POCI USA_ROCI USA_RMW USA_EYE TOKYO_LAT TOKYO_LON TOKYO_GRADE TOKYO_WIND TOKYO_PRES TOKYO_R50_DIR TOKYO_R50_LONG TOKYO_R50_SHORT TOKYO_R30_DIR TOKYO_R30_LONG TOKYO_R30_SHORT TOKYO_LAND CMA_LAT CMA_LON CMA_CAT CMA_WIND CMA_PRES HKO_LAT HKO_LON HKO_CAT HKO_WIND HKO_PRES NEWDELHI_LAT NEWDELHI_LON NEWDELHI_GRADE NEWDELHI_WIND NEWDELHI_PRES NEWDELHI_CI NEWDELHI_DP NEWDELHI_POCI REUNION_LAT REUNION_LON REUNION_TYPE REUNION_WIND REUNION_PRES REUNION_TNUM REUNION_CI REUNION_RMW REUNION_R34_NE REUNION_R34_SE REUNION_R34_SW REUNION_R34_NW REUNION_R50_NE REUNION_R50_SE REUNION_R50_SW REUNION_R50_NW REUNION_R64_NE REUNION_R64_SE REUNION_R64_SW REUNION_R64_NW BOM_LAT BOM_LON BOM_TYPE BOM_WIND BOM_PRES BOM_TNUM BOM_CI BOM_RMW BOM_R34_NE BOM_R34_SE BOM_R34_SW BOM_R34_NW BOM_R50_NE BOM_R50_SE BOM_R50_SW BOM_R50_NW BOM_R64_NE BOM_R64_SE BOM_R64_SW BOM_R64_NW BOM_ROCI BOM_POCI BOM_EYE BOM_POS_METHOD BOM_PRES_METHOD NADI_LAT NADI_LON NADI_CAT NADI_WIND NADI_PRES WELLINGTON_LAT WELLINGTON_LON WELLINGTON_WIND WELLINGTON_PRES DS824_LAT DS824_LON DS824_STAGE DS824_WIND DS824_PRES TD9636_LAT TD9636_LON TD9636_STAGE TD9636_WIND TD9636_PRES TD9635_LAT TD9635_LON TD9635_WIND TD9635_PRES TD9635_ROCI NEUMANN_LAT NEUMANN_LON NEUMANN_CLASS NEUMANN_WIND NEUMANN_PRES MLC_LAT MLC_LON MLC_CLASS MLC_WIND MLC_PRES USA_GUST BOM_GUST BOM_GUST_PER REUNION_GUST REUNION_GUST_PER USA_SEAHGT USA_SEARAD_NE USA_SEARAD_SE USA_SEARAD_SW USA_SEARAD_NW STORM_SPEED STORM_DIR
1926203N13304 1926 26 NA NA NOT_NAMED 1926-07-22 06:00:00 TS 12.8000 -56.5000 35 hurdat_atl main 543 493 O_____________ hurdat_atl AL011926 12.8000 -56.5000 TS 35 0 16 296
1926203N13304 1926 26 NA NA NOT_NAMED 1926-07-22 09:00:00 TS 13.1504 -57.2421 main 499 452 P_____________ AL011926 13.1504 -57.2421 TS 37 0 16 296
1926203N13304 1926 26 NA NA NOT_NAMED 1926-07-22 12:00:00 TS 13.5000 -58.0000 40 hurdat_atl main 452 427 O_____________ hurdat_atl AL011926 13.5000 -58.0000 TS 40 0 17 295
1926203N13304 1926 26 NA NA NOT_NAMED 1926-07-22 15:00:00 TS 13.8497 -58.7853 main 421 414 P_____________ AL011926 13.8497 -58.7853 TS 45 0 17 294
1926203N13304 1926 26 NA CS NOT_NAMED 1926-07-22 18:00:00 TS 14.2000 -59.6000 50 hurdat_atl main 420 416 O_____________ hurdat_atl AL011926 14.2000 -59.6000 TS 50 0 18 293
1926203N13304 1926 26 NA CS NOT_NAMED 1926-07-22 21:00:00 TS 14.5499 -60.4502 main 428 428 P_____________ AL011926 14.5499 -60.4502 TS 55 0 18 293
1926203N13304 1926 26 NA CS NOT_NAMED 1926-07-23 00:00:00 TS 14.9000 -61.3000 60 hurdat_atl main 470 470 O_____________ hurdat_atl AL011926 14.9000 -61.3000 TS 60 0 18 294
1926203N13304 1926 26 NA CS NOT_NAMED 1926-07-23 03:00:00 TS 15.2496 -62.1078 main 501 408 P_____________ AL011926 15.2496 -62.1078 TS 65 1 17 294
1926203N13304 1926 26 NA CS NOT_NAMED 1926-07-23 06:00:00 TS 15.6000 -62.9000 70 hurdat_atl main 408 324 O_____________ hurdat_atl AL011926 15.6000 -62.9000 HU 70 1 17 294
1926203N13304 1926 26 NA CS NOT_NAMED 1926-07-23 09:00:00 TS 15.9424 -63.7227 main 324 235 P_____________ AL011926 15.9424 -63.7227 HU 75 1 17 294
1926203N13304 1926 26 NA CS NOT_NAMED 1926-07-23 12:00:00 TS 16.3000 -64.5000 80 hurdat_atl main 235 163 O_____________ hurdat_atl AL011926 16.3000 -64.5000 HU 80 1 16 298
1926203N13304 1926 26 NA CS NOT_NAMED 1926-07-23 15:00:00 TS 16.6921 -65.1728 main 158 99 P_____________ AL011926 16.6921 -65.1728 HU 85 2 15 303
1926203N13304 1926 26 NA CS NOT_NAMED 1926-07-23 18:00:00 TS 17.1000 -65.8000 90 hurdat_atl main 99 49 O_____________ hurdat_atl AL011926 17.1000 -65.8000 HU 90 2 15 303
1926203N13304 1926 26 NA CS NOT_NAMED 1926-07-23 21:00:00 TS 17.4999 -66.4652 main 54 10 P_____________ AL011926 17.4999 -66.4652 HU 90 2 15 303
1926203N13304 1926 26 NA CS NOT_NAMED 1926-07-24 00:00:00 TS 17.9000 -67.1000 90 hurdat_atl main 10 0 O_____________ hurdat_atl AL011926 17.9000 -67.1000 HU 90 2 14 305
1926203N13304 1926 26 NA CS NOT_NAMED 1926-07-24 03:00:00 TS 18.2997 -67.6653 main 43 15 P_____________ AL011926 18.2997 -67.6653 HU 87 2 13 307
1926203N13304 1926 26 NA NA NOT_NAMED 1926-07-24 06:00:00 TS 18.7000 -68.2000 85 hurdat_atl main 15 11 O_____________ hurdat_atl AL011926 18.7000 -68.2000 HU 85 2 13 308
1926203N13304 1926 26 NA NA NOT_NAMED 1926-07-24 09:00:00 TS 19.1074 -68.7576 main 22 15 P_____________ AL011926 19.1074 -68.7576 HU 82 1 13 308
1926203N13304 1926 26 NA NA NOT_NAMED 1926-07-24 12:00:00 TS 19.5000 -69.3000 80 hurdat_atl main 22 22 O_____________ hurdat_atl AL011926 19.5000 -69.3000 HU 80 1 12 307
1926203N13304 1926 26 NA NA NOT_NAMED 1926-07-24 15:00:00 TS 19.8498 -69.8079 main 30 30 P_____________ AL011926 19.8498 -69.8079 HU 77 1 12 307
1926203N13304 1926 26 NA NA NOT_NAMED 1926-07-24 18:00:00 TS 20.2000 -70.3000 75 hurdat_atl main 54 49 O_____________ hurdat_atl AL011926 20.2000 -70.3000 HU 75 1 12 309
1926203N13304 1926 26 NA NA NOT_NAMED 1926-07-24 21:00:00 TS 20.5923 -70.7928 main 89 89 P_____________ AL011926 20.5923 -70.7928 HU 80 1 12 311
1926203N13304 1926 26 NA NA NOT_NAMED 1926-07-25 00:00:00 TS 21.0000 -71.3000 85 hurdat_atl main 134 124 O_____________ hurdat_atl AL011926 21.0000 -71.3000 HU 85 2 13 310
1926203N13304 1926 26 NA NA NOT_NAMED 1926-07-25 03:00:00 TS 21.4074 -71.8427 main 126 91 P_____________ AL011926 21.4074 -71.8427 HU 90 2 13 308
1926203N13304 1926 26 NA NA NOT_NAMED 1926-07-25 06:00:00 TS 21.8000 -72.4000 95 hurdat_atl main 91 84 O_____________ hurdat_atl AL011926 21.8000 -72.4000 HU 95 2 13 306
1926203N13304 1926 26 NA NA NOT_NAMED 1926-07-25 09:00:00 TS 22.1649 -72.9652 main 111 111 P_____________ AL011926 22.1649 -72.9652 HU 100 3 12 304
1926203N13304 1926 26 NA NA NOT_NAMED 1926-07-25 12:00:00 TS 22.5000 -73.5000 105 hurdat_atl main 148 148 O_____________ hurdat_atl AL011926 22.5000 -73.5000 HU 105 3 11 305
1926203N13304 1926 26 NA NA NOT_NAMED 1926-07-25 15:00:00 TS 22.8072 -73.9654 main 192 192 P_____________ AL011926 22.8072 -73.9654 HU 110 3 10 306
1926203N13304 1926 26 NA NA NOT_NAMED 1926-07-25 18:00:00 TS 23.1000 -74.4000 115 hurdat_atl main 234 234 O_____________ hurdat_atl AL011926 23.1000 -74.4000 HU 115 4 10 306
1926203N13304 1926 26 NA NA NOT_NAMED 1926-07-25 21:00:00 TS 23.3999 -74.8502 main 277 259 P_____________ AL011926 23.3999 -74.8502 HU 117 4 10 306
1926203N13304 1926 26 NA NA NOT_NAMED 1926-07-26 00:00:00 TS 23.7000 -75.3000 120 hurdat_atl main 259 210 O_____________ hurdat_atl AL011926 23.7000 -75.3000 HU 120 4 10 306
1926203N13304 1926 26 NA NA NOT_NAMED 1926-07-26 03:00:00 TS 24.0074 -75.7576 main 200 153 P_____________ AL011926 24.0074 -75.7576 HU 120 4 10 306
1926203N13304 1926 26 NA NA NOT_NAMED 1926-07-26 06:00:00 TS 24.3000 -76.2000 120 hurdat_atl main 153 111 O_____________ hurdat_atl AL011926 24.3000 -76.2000 HU 120 4 10 305
1926203N13304 1926 26 NA NA NOT_NAMED 1926-07-26 09:00:00 TS 24.5649 -76.6226 main 111 78 P_____________ AL011926 24.5649 -76.6226 HU 117 4 9 304
1926203N13304 1926 26 NA NA NOT_NAMED 1926-07-26 12:00:00 TS 24.8000 -77.0000 115 hurdat_atl main 78 60 O_____________ hurdat_atl AL011926 24.8000 -77.0000 HU 115 4 8 305
1926203N13304 1926 26 NA NA NOT_NAMED 1926-07-26 15:00:00 TS 25.0074 -77.3227 main 60 41 P_____________ AL011926 25.0074 -77.3227 HU 112 3 7 306
1926203N13304 1926 26 NA NA NOT_NAMED 1926-07-26 18:00:00 TS 25.2000 -77.6000 110 hurdat_atl main 41 30 O_____________ hurdat_atl AL011926 25.2000 -77.6000 HU 110 3 6 309
1926203N13304 1926 26 NA NA NOT_NAMED 1926-07-26 21:00:00 TS 25.4075 -77.8650 main 34 34 P_____________ AL011926 25.4075 -77.8650 HU 107 3 6 312
1926203N13304 1926 26 NA NA NOT_NAMED 1926-07-27 00:00:00 TS 25.6000 -78.1000 105 hurdat_atl main 55 55 O_____________ hurdat_atl AL011926 25.6000 -78.1000 HU 105 3 5 311
1926203N13304 1926 26 NA NA NOT_NAMED 1926-07-27 03:00:00 TS 25.7499 -78.3002 main 69 69 P_____________ AL011926 25.7499 -78.3002 HU 100 3 5 310
1926203N13304 1926 26 NA NA NOT_NAMED 1926-07-27 06:00:00 TS 25.9000 -78.5000 95 hurdat_atl main 97 97 O_____________ hurdat_atl AL011926 25.9000 -78.5000 HU 95 2 5 309
1926203N13304 1926 26 NA NA NOT_NAMED 1926-07-27 09:00:00 TS 26.0775 -78.7426 main 126 109 P_____________ AL011926 26.0775 -78.7426 HU 95 2 6 312
1926203N13304 1926 26 NA NA NOT_NAMED 1926-07-27 12:00:00 TS 26.3000 -79.0000 95 hurdat_atl main 109 82 O_____________ hurdat_atl AL011926 26.3000 -79.0000 HU 95 2 7 317
1926203N13304 1926 26 NA NA NOT_NAMED 1926-07-27 15:00:00 TS 26.5700 -79.2501 main 72 49 P_____________ AL011926 26.5700 -79.2501 HU 95 2 8 323
1926203N13304 1926 26 NA NA NOT_NAMED 1926-07-27 18:00:00 TS 26.9000 -79.5000 95 hurdat_atl main 50 41 O_____________ hurdat_atl AL011926 26.9000 -79.5000 HU 95 2 8 328
1926203N13304 1926 26 NA NA NOT_NAMED 1926-07-27 21:00:00 TS 27.2850 -79.7501 main 41 37 P_____________ AL011926 27.2850 -79.7501 HU 92 2 9 331
1926203N13304 1926 26 NA NA NOT_NAMED 1926-07-28 00:00:00 TS 27.7000 -80.0000 90 hurdat_atl main 40 29 O_____________ hurdat_atl AL011926 27.7000 -80.0000 HU 90 2 9 331
1926203N13304 1926 26 NA NA NOT_NAMED 1926-07-28 03:00:00 TS 28.1045 -80.2547 main 29 0 P_____________ AL011926 28.1045 -80.2547 HU 90 2 9 331
1926203N13304 1926 26 NA NA NOT_NAMED 1926-07-28 06:00:00 TS 28.5000 -80.5000 90 967 hurdat_atl main 0 0 O_____________ hurdat_atl AL011926 28.5000 -80.5000 HU 90 967 2 9 334
1926203N13304 1926 26 NA NA NOT_NAMED 1926-07-28 09:00:00 TS 28.8859 -80.6959 main 9 9 P_____________ AL011926 28.8859 -80.6959 HU 90 967 2 9 332
1926203N13304 1926 26 NA NA NOT_NAMED 1926-07-28 10:00:00 TS 29.0000 -80.8000 90 967 hurdat_atl main 9 0 O_____________ hurdat_atl AL011926 29.0000 -80.8000 L HU 90 967 2 9 312
1926203N13304 1926 26 NA NA NOT_NAMED 1926-07-28 12:00:00 TS 29.2000 -81.1000 75 hurdat_atl main 0 0 O_____________ hurdat_atl AL011926 29.2000 -81.1000 HU 75 1 9 310
1926203N13304 1926 26 NA NA NOT_NAMED 1926-07-28 15:00:00 TS 29.4933 -81.4672 main 0 0 P_____________ AL011926 29.4933 -81.4672 HU 65 1 9 315
1926203N13304 1926 26 NA NA NOT_NAMED 1926-07-28 18:00:00 TS 29.8000 -81.8000 55 hurdat_atl main 0 0 O_____________ hurdat_atl AL011926 29.8000 -81.8000 TS 55 0 9 316
1926203N13304 1926 26 NA NA NOT_NAMED 1926-07-28 21:00:00 TS 30.1349 -82.1853 main 0 0 P_____________ AL011926 30.1349 -82.1853 TS 52 0 10 315
1926203N13304 1926 26 NA NA NOT_NAMED 1926-07-29 00:00:00 TS 30.5000 -82.6000 50 hurdat_atl main 0 0 O_____________ hurdat_atl AL011926 30.5000 -82.6000 TS 50 0 11 316
1926203N13304 1926 26 NA NA NOT_NAMED 1926-07-29 03:00:00 TS 30.8998 -83.0352 main 0 0 P_____________ AL011926 30.8998 -83.0352 TS 45 0 11 316
1926203N13304 1926 26 NA NA NOT_NAMED 1926-07-29 06:00:00 TS 31.3000 -83.5000 40 hurdat_atl main 0 0 O_____________ hurdat_atl AL011926 31.3000 -83.5000 TS 40 0 11 314
1926203N13304 1926 26 NA NA NOT_NAMED 1926-07-29 09:00:00 TS 31.6799 -83.9925 main 0 0 P_____________ AL011926 31.6799 -83.9925 TS 37 0 11 309
1926203N13304 1926 26 NA NA NOT_NAMED 1926-07-29 12:00:00 TS 32.0000 -84.5000 35 hurdat_atl main 0 0 O_____________ hurdat_atl AL011926 32.0000 -84.5000 TS 35 0 10 303
1926203N13304 1926 26 NA NA NOT_NAMED 1926-07-29 15:00:00 TS 32.2297 -84.9930 main 0 0 P_____________ AL011926 32.2297 -84.9930 TS 32 -1 9 295
1926203N13304 1926 26 NA NA NOT_NAMED 1926-07-29 18:00:00 TS 32.4000 -85.5000 30 hurdat_atl main 0 0 O_____________ hurdat_atl AL011926 32.4000 -85.5000 TD 30 -1 9 291
1926203N13304 1926 26 NA NA NOT_NAMED 1926-07-29 21:00:00 TS 32.5648 -86.0352 main 0 0 P_____________ AL011926 32.5648 -86.0352 TD 30 -1 10 288
1926203N13304 1926 26 NA NA NOT_NAMED 1926-07-30 00:00:00 TS 32.7000 -86.6000 30 hurdat_atl main 0 0 O_____________ hurdat_atl AL011926 32.7000 -86.6000 TD 30 -1 10 284
1926203N13304 1926 26 NA NA NOT_NAMED 1926-07-30 03:00:00 TS 32.8150 -87.2076 main 0 0 P_____________ AL011926 32.8150 -87.2076 TD 27 -1 10 281
1926203N13304 1926 26 NA NA NOT_NAMED 1926-07-30 06:00:00 TS 32.9000 -87.8000 25 hurdat_atl main 0 0 O_____________ hurdat_atl AL011926 32.9000 -87.8000 TD 25 -1 10 278
1926203N13304 1926 26 NA NA NOT_NAMED 1926-07-30 09:00:00 TS 32.9498 -88.3303 main 0 0 P_____________ AL011926 32.9498 -88.3303 TD 25 -1 8 277
1926203N13304 1926 26 NA NA NOT_NAMED 1926-07-30 12:00:00 TS 33.0000 -88.8000 25 hurdat_atl main 0 0 O_____________ hurdat_atl AL011926 33.0000 -88.8000 TD 25 -1 8 280
1926203N13304 1926 26 NA NA NOT_NAMED 1926-07-30 15:00:00 TS 33.0849 -89.2375 main 0 0 P_____________ AL011926 33.0849 -89.2375 TD 25 -1 7 287
1926203N13304 1926 26 NA NA NOT_NAMED 1926-07-30 18:00:00 TS 33.2000 -89.6000 25 hurdat_atl main 0 0 O_____________ hurdat_atl AL011926 33.2000 -89.6000 TD 25 -1 6 295
1926203N13304 1926 26 NA NA NOT_NAMED 1926-07-30 21:00:00 TS 33.3349 -89.8876 main 0 0 P_____________ AL011926 33.3349 -89.8876 TD 25 -1 5 306
1926203N13304 1926 26 NA NA NOT_NAMED 1926-07-31 00:00:00 TS 33.5000 -90.1000 25 hurdat_atl main 0 0 O_____________ hurdat_atl AL011926 33.5000 -90.1000 TD 25 -1 5 316
1926203N13304 1926 26 NA NA NOT_NAMED 1926-07-31 03:00:00 TS 33.6775 -90.2801 main 0 0 P_____________ AL011926 33.6775 -90.2801 TD 25 -1 5 328
1926203N13304 1926 26 NA NA NOT_NAMED 1926-07-31 06:00:00 TS 33.9000 -90.4000 25 hurdat_atl main 0 0 O_____________ hurdat_atl AL011926 33.9000 -90.4000 TD 25 -1 5 338
1926203N13304 1926 26 NA NA NOT_NAMED 1926-07-31 09:00:00 TS 34.1549 -90.5095 main 0 0 P_____________ AL011926 34.1549 -90.5095 TD 25 -1 6 352
1926203N13304 1926 26 NA NA NOT_NAMED 1926-07-31 12:00:00 TS 34.5000 -90.5000 25 hurdat_atl main 0 0 O_____________ hurdat_atl AL011926 34.5000 -90.5000 TD 25 -1 8 10
1926203N13304 1926 26 NA NA NOT_NAMED 1926-07-31 15:00:00 TS 34.9320 -90.3536 main 0 0 P_____________ AL011926 34.9320 -90.3536 TD 25 -1 11 22
1926203N13304 1926 26 NA NA NOT_NAMED 1926-07-31 18:00:00 TS 35.5000 -90.0000 25 hurdat_atl main 0 0 O_____________ hurdat_atl AL011926 35.5000 -90.0000 TD 25 -1 15 30
1926203N13304 1926 26 NA NA NOT_NAMED 1926-07-31 21:00:00 TS 36.2201 -89.4330 main 0 0 P_____________ AL011926 36.2201 -89.4330 TD 25 -1 18 35
1926203N13304 1926 26 NA NA NOT_NAMED 1926-08-01 00:00:00 ET 37.0000 -88.7000 25 hurdat_atl main 0 0 O_____________ hurdat_atl AL011926 37.0000 -88.7000 EX 25 -4 19 39
1926203N13304 1926 26 NA NA NOT_NAMED 1926-08-01 03:00:00 ET 37.7299 -87.9222 main 0 0 P_____________ AL011926 37.7299 -87.9222 EX 25 -4 19 42
1926203N13304 1926 26 NA NA NOT_NAMED 1926-08-01 06:00:00 ET 38.4000 -87.1000 25 hurdat_atl main 0 0 O_____________ hurdat_atl AL011926 38.4000 -87.1000 EX 25 -4 18 46
1926203N13304 1926 26 NA NA NOT_NAMED 1926-08-01 09:00:00 ET 38.9719 -86.2980 main 0 0 P_____________ AL011926 38.9719 -86.2980 EX 25 -4 17 49
1926203N13304 1926 26 NA NA NOT_NAMED 1926-08-01 12:00:00 ET 39.5000 -85.5000 25 hurdat_atl main 0 0 O_____________ hurdat_atl AL011926 39.5000 -85.5000 EX 25 -4 16 49
1926203N13304 1926 26 NA NA NOT_NAMED 1926-08-01 15:00:00 ET 40.0418 -84.7057 main 0 0 P_____________ AL011926 40.0418 -84.7057 EX 25 -4 16 48
1926203N13304 1926 26 NA NA NOT_NAMED 1926-08-01 18:00:00 ET 40.6000 -83.9000 25 hurdat_atl main 0 0 O_____________ hurdat_atl AL011926 40.6000 -83.9000 EX 25 -4 17 47
1926203N13304 1926 26 NA NA NOT_NAMED 1926-08-01 21:00:00 ET 41.1997 -83.0494 main 0 0 P_____________ AL011926 41.1997 -83.0494 EX 25 -4 18 47
1926203N13304 1926 26 NA NA NOT_NAMED 1926-08-02 00:00:00 ET 41.8000 -82.2000 25 hurdat_atl main 0 0 O_____________ hurdat_atl AL011926 41.8000 -82.2000 EX 25 -4 17 47
1926203N13304 1926 26 NA NA NOT_NAMED 1926-08-02 03:00:00 ET 42.3565 -81.4052 main 0 0 P_____________ AL011926 42.3565 -81.4052 EX 25 -4 16 47
1926203N13304 1926 26 NA NA NOT_NAMED 1926-08-02 06:00:00 ET 42.9000 -80.6000 25 hurdat_atl main 0 0 O_____________ hurdat_atl AL011926 42.9000 -80.6000 EX 25 -4 16 48
1926203N13304 1926 26 NA NA NOT_NAMED 1926-08-02 09:00:00 ET 43.4493 -79.7264 main 0 0 P_____________ AL011926 43.4493 -79.7264 EX 25 -4 17 50
1926203N13304 1926 26 NA NA NOT_NAMED 1926-08-02 12:00:00 ET 44.0000 -78.8000 25 hurdat_atl main 0 O_____________ hurdat_atl AL011926 44.0000 -78.8000 EX 25 -4 17 50

IBTrACS Databaseについて

本データベースは、米国NOAAが公開する1842年以降の世界の熱帯低気圧のベストトラックデータアーカイブInternational Best Track Archive for Climate Stewardship (IBTrACS)を、ウェブで閲覧しやすい形式に変換したものです。

最終更新日:2021-10-27